Time;durP1;ratioP1;P1;durP2;ratioP2;P2;SDS_P1;SDS_P2;PMS_P1;PMS_P2;Temp;Humidity;BMP_temperature;BMP_pressure;BME280_temperature;BME280_humidity;BME280_pressure;Samples;Min_cycle;Max_cycle;Signal;HPM_P1;HPM_P2
2023/09/26 00:01:07;;;;;;;3.13;2.80;;;;;;;;;;5018003;28;20916;-91
2023/09/26 00:03:33;;;;;;;3.87;3.30;;;;;;;;;;5034366;28;20476;-88
2023/09/26 00:05:59;;;;;;;4.20;3.53;;;;;;;;;;5017365;28;20414;-87
2023/09/26 00:08:25;;;;;;;4.23;2.57;;;;;;;;;;5019013;28;20559;-93
2023/09/26 00:10:51;;;;;;;5.07;3.03;;;;;;;;;;5023240;28;20485;-94
2023/09/26 00:13:17;;;;;;;4.40;3.20;;;;;;;;;;5036361;28;20418;-93
2023/09/26 00:15:43;;;;;;;4.53;2.13;;;;;;;;;;5017486;28;20926;-87
2023/09/26 00:18:09;;;;;;;3.40;3.10;;;;;;;;;;5017072;28;20170;-90
2023/09/26 00:20:38;;;;;;;3.50;3.07;;;;;;;;;;5036000;28;20412;-91
2023/09/26 00:23:05;;;;;;;7.37;4.30;;;;;;;;;;5036305;28;20421;-92
2023/09/26 00:25:31;;;;;;;3.90;3.23;;;;;;;;;;5036877;28;20414;-93
2023/09/26 00:27:57;;;;;;;4.57;2.50;;;;;;;;;;5018010;28;20469;-90
2023/09/26 00:30:27;;;;;;;4.50;3.27;;;;;;;;;;5036567;28;20418;-89
2023/09/26 00:32:53;;;;;;;4.40;3.50;;;;;;;;;;5039792;28;20421;-85
2023/09/26 00:35:19;;;;;;;3.30;2.87;;;;;;;;;;5019500;28;20420;-94
2023/09/26 00:37:49;;;;;;;3.70;3.30;;;;;;;;;;5037336;28;20833;-91
2023/09/26 00:40:16;;;;;;;6.00;3.43;;;;;;;;;;5018980;28;20435;-89
2023/09/26 00:42:45;;;;;;;3.87;2.80;;;;;;;;;;5016994;28;20776;-88
2023/09/26 00:45:12;;;;;;;3.80;3.50;;;;;;;;;;5016343;28;20409;-91
2023/09/26 00:47:39;;;;;;;5.10;4.60;;;;;;;;;;5034126;28;20524;-89
2023/09/26 00:50:07;;;;;;;3.33;3.03;;;;;;;;;;5018426;28;20430;-88
2023/09/26 00:52:34;;;;;;;4.83;4.03;;;;;;;;;;5037134;28;20425;-89
2023/09/26 00:55:02;;;;;;;5.07;4.50;;;;;;;;;;5037472;28;20429;-89
2023/09/26 00:57:28;;;;;;;6.07;4.43;;;;;;;;;;5024614;28;20450;-88
2023/09/26 00:59:54;;;;;;;3.80;3.43;;;;;;;;;;5039219;28;20421;-89
2023/09/26 01:02:22;;;;;;;6.13;5.53;;;;;;;;;;5047083;28;20420;-89
2023/09/26 01:04:48;;;;;;;4.77;3.80;;;;;;;;;;5032925;28;20503;-89
2023/09/26 01:07:14;;;;;;;3.50;3.20;;;;;;;;;;5024704;28;20474;-90
2023/09/26 01:09:40;;;;;;;4.77;4.27;;;;;;;;;;5026821;28;20412;-89
2023/09/26 01:12:08;;;;;;;4.60;4.10;;;;;;;;;;5022766;28;20979;-85
2023/09/26 01:14:35;;;;;;;7.43;4.57;;;;;;;;;;5045213;28;20412;-88
2023/09/26 01:17:01;;;;;;;5.37;3.83;;;;;;;;;;5043863;28;20419;-88
2023/09/26 01:19:27;;;;;;;5.50;4.20;;;;;;;;;;5025017;28;20442;-92
2023/09/26 01:21:53;;;;;;;6.07;3.53;;;;;;;;;;5042979;28;20440;-94
2023/09/26 01:24:19;;;;;;;4.83;4.17;;;;;;;;;;5018505;28;20424;-94
2023/09/26 01:26:45;;;;;;;4.83;3.93;;;;;;;;;;5044646;28;20459;-94
2023/09/26 01:29:11;;;;;;;4.43;4.03;;;;;;;;;;5043138;28;20468;-93
2023/09/26 01:31:38;;;;;;;5.80;4.50;;;;;;;;;;5019770;28;20420;-89
2023/09/26 01:34:04;;;;;;;6.03;3.90;;;;;;;;;;5058510;28;20440;-91
2023/09/26 01:36:31;;;;;;;3.90;3.07;;;;;;;;;;5038397;28;20493;-93
2023/09/26 01:38:57;;;;;;;4.43;3.43;;;;;;;;;;5048072;28;20421;-93
2023/09/26 01:41:23;;;;;;;4.40;3.63;;;;;;;;;;5044296;28;20403;-91
2023/09/26 01:43:50;;;;;;;4.57;4.10;;;;;;;;;;5049656;28;20424;-84
2023/09/26 01:46:16;;;;;;;5.40;3.80;;;;;;;;;;5040237;28;21005;-93
2023/09/26 01:48:42;;;;;;;5.10;4.30;;;;;;;;;;5054592;28;20498;-92
2023/09/26 01:51:08;;;;;;;6.23;4.33;;;;;;;;;;5054895;28;20418;-94
2023/09/26 01:53:34;;;;;;;5.17;4.30;;;;;;;;;;5058375;28;20182;-92
2023/09/26 01:55:59;;;;;;;3.70;3.33;;;;;;;;;;5042424;28;20897;-93
2023/09/26 01:58:25;;;;;;;4.67;4.00;;;;;;;;;;5037961;28;20187;-95
2023/09/26 02:00:51;;;;;;;4.77;3.90;;;;;;;;;;5044706;28;20516;-92
2023/09/26 02:03:17;;;;;;;4.90;3.93;;;;;;;;;;5042686;28;20413;-94
2023/09/26 02:05:44;;;;;;;6.53;4.23;;;;;;;;;;5054783;28;20443;-92
2023/09/26 02:08:09;;;;;;;4.90;4.07;;;;;;;;;;5053979;28;20880;-93
2023/09/26 02:10:35;;;;;;;5.10;4.60;;;;;;;;;;5035661;28;20404;-93
2023/09/26 02:13:01;;;;;;;4.63;4.20;;;;;;;;;;5036844;28;20417;-87
2023/09/26 02:15:27;;;;;;;6.87;4.20;;;;;;;;;;5040092;28;20638;-94
2023/09/26 02:17:53;;;;;;;6.90;5.10;;;;;;;;;;5044764;28;20417;-90
2023/09/26 02:20:20;;;;;;;4.50;4.10;;;;;;;;;;5046163;28;20397;-92
2023/09/26 02:22:47;;;;;;;5.70;4.30;;;;;;;;;;5040510;28;20412;-93
2023/09/26 02:25:13;;;;;;;5.73;4.30;;;;;;;;;;5040052;28;20554;-92
2023/09/26 02:27:39;;;;;;;4.37;3.97;;;;;;;;;;5040613;28;20470;-93
2023/09/26 02:30:06;;;;;;;4.23;3.40;;;;;;;;;;5023152;28;20485;-92
2023/09/26 02:32:32;;;;;;;5.03;4.47;;;;;;;;;;5021539;28;20408;-92
2023/09/26 02:34:58;;;;;;;4.57;3.80;;;;;;;;;;5041648;28;20445;-90
2023/09/26 02:37:24;;;;;;;5.33;3.73;;;;;;;;;;5043065;28;20421;-91
2023/09/26 02:39:50;;;;;;;5.13;3.70;;;;;;;;;;5037904;28;20499;-92
2023/09/26 02:42:16;;;;;;;5.97;4.20;;;;;;;;;;5038627;28;20415;-91
2023/09/26 02:44:42;;;;;;;3.63;3.17;;;;;;;;;;5044630;28;20418;-94
2023/09/26 02:47:08;;;;;;;4.10;3.80;;;;;;;;;;5041461;28;20466;-90
2023/09/26 02:49:34;;;;;;;3.70;3.00;;;;;;;;;;5037656;28;20938;-92
2023/09/26 02:52:00;;;;;;;4.57;3.90;;;;;;;;;;5037555;28;20414;-91
2023/09/26 02:54:26;;;;;;;4.00;3.47;;;;;;;;;;5037851;28;20415;-93
2023/09/26 02:56:52;;;;;;;5.20;3.50;;;;;;;;;;5039896;28;20427;-92
2023/09/26 02:59:18;;;;;;;4.47;3.67;;;;;;;;;;5039015;28;20749;-93
2023/09/26 03:01:44;;;;;;;5.67;3.80;;;;;;;;;;5039329;28;20187;-91
2023/09/26 03:04:10;;;;;;;5.73;2.97;;;;;;;;;;5020638;28;20427;-91
2023/09/26 03:06:36;;;;;;;5.43;4.20;;;;;;;;;;5019869;28;20761;-91
2023/09/26 03:09:02;;;;;;;4.87;2.97;;;;;;;;;;5019844;28;20427;-92
2023/09/26 03:11:28;;;;;;;6.93;4.37;;;;;;;;;;5019793;28;20754;-92
2023/09/26 03:13:54;;;;;;;4.50;3.57;;;;;;;;;;5006789;28;20432;-93
2023/09/26 03:16:20;;;;;;;4.40;3.80;;;;;;;;;;5002517;28;20471;-91
2023/09/26 03:18:46;;;;;;;5.17;3.70;;;;;;;;;;5035434;28;20916;-90
2023/09/26 03:21:12;;;;;;;4.70;4.30;;;;;;;;;;5036220;28;20928;-92
2023/09/26 03:23:38;;;;;;;3.50;3.20;;;;;;;;;;5035042;28;20456;-89
2023/09/26 03:26:12;;;;;;;5.00;3.63;;;;;;;;;;5035700;28;20413;-91
2023/09/26 03:28:38;;;;;;;5.10;3.73;;;;;;;;;;5035573;28;20479;-89
2023/09/26 03:31:04;;;;;;;4.47;3.70;;;;;;;;;;5035895;28;20414;-91
2023/09/26 03:33:30;;;;;;;3.90;3.50;;;;;;;;;;5035681;28;20416;-92
2023/09/26 03:35:59;;;;;;;4.43;4.03;;;;;;;;;;5035927;28;20434;-91
2023/09/26 03:38:25;;;;;;;4.80;4.27;;;;;;;;;;5012581;28;20515;-91
2023/09/26 03:40:58;;;;;;;7.80;4.60;;;;;;;;;;4999649;28;20468;-91
2023/09/26 03:43:26;;;;;;;6.20;4.67;;;;;;;;;;4999550;28;20435;-91
2023/09/26 03:45:52;;;;;;;4.33;3.47;;;;;;;;;;4998988;28;20828;-90
2023/09/26 03:48:17;;;;;;;5.90;4.10;;;;;;;;;;4998957;28;20481;-91
2023/09/26 03:50:46;;;;;;;5.73;4.43;;;;;;;;;;5014425;28;20454;-91
2023/09/26 03:53:13;;;;;;;4.70;3.77;;;;;;;;;;5035476;28;20435;-92
2023/09/26 03:55:39;;;;;;;4.30;3.80;;;;;;;;;;5035507;28;20426;-91
2023/09/26 03:58:06;;;;;;;6.33;3.50;;;;;;;;;;5035382;28;20420;-90
2023/09/26 04:00:32;;;;;;;5.30;3.70;;;;;;;;;;5035297;28;20416;-92
2023/09/26 04:02:58;;;;;;;4.27;3.80;;;;;;;;;;5024277;28;20463;-91
2023/09/26 04:05:25;;;;;;;4.20;2.67;;;;;;;;;;5018651;28;20501;-91
2023/09/26 04:07:51;;;;;;;4.50;4.10;;;;;;;;;;5018601;28;20862;-92
2023/09/26 04:10:17;;;;;;;5.37;3.93;;;;;;;;;;5018735;28;20461;-90
2023/09/26 04:12:43;;;;;;;4.50;4.10;;;;;;;;;;5018629;28;20483;-90
2023/09/26 04:15:09;;;;;;;5.63;4.43;;;;;;;;;;5018427;28;20423;-90
2023/09/26 04:17:36;;;;;;;5.80;4.60;;;;;;;;;;5018039;28;20419;-91
2023/09/26 04:20:10;;;;;;;4.60;4.17;;;;;;;;;;5018412;28;20422;-91
2023/09/26 04:22:37;;;;;;;5.53;4.70;;;;;;;;;;5018291;28;20776;-91
2023/09/26 04:25:03;;;;;;;5.20;4.00;;;;;;;;;;5018351;28;20423;-91
2023/09/26 04:27:29;;;;;;;6.50;4.53;;;;;;;;;;5018376;28;20481;-92
2023/09/26 04:29:55;;;;;;;8.63;4.30;;;;;;;;;;5018007;28;20422;-90
2023/09/26 04:32:21;;;;;;;6.70;3.60;;;;;;;;;;5017945;28;20884;-91
2023/09/26 04:34:47;;;;;;;6.20;4.50;;;;;;;;;;5018158;28;20909;-90
2023/09/26 04:37:13;;;;;;;5.10;4.00;;;;;;;;;;5018084;28;20427;-91
2023/09/26 04:39:38;;;;;;;4.07;3.27;;;;;;;;;;5017972;28;20484;-91
2023/09/26 04:42:04;;;;;;;5.60;4.97;;;;;;;;;;5018108;28;20419;-90
2023/09/26 04:44:33;;;;;;;4.33;3.57;;;;;;;;;;5018089;28;20919;-91
2023/09/26 04:46:58;;;;;;;6.73;4.30;;;;;;;;;;5017849;28;20970;-92
2023/09/26 04:49:24;;;;;;;5.30;4.17;;;;;;;;;;5018069;28;20431;-92
2023/09/26 04:51:51;;;;;;;4.63;4.10;;;;;;;;;;5018105;28;20458;-91
2023/09/26 04:54:17;;;;;;;6.17;4.53;;;;;;;;;;5018094;28;20454;-92
2023/09/26 04:56:43;;;;;;;6.20;5.67;;;;;;;;;;5017901;28;20413;-92
2023/09/26 04:59:09;;;;;;;4.90;4.10;;;;;;;;;;5018076;28;20416;-92
2023/09/26 05:01:36;;;;;;;6.17;4.57;;;;;;;;;;5017353;28;20415;-91
2023/09/26 05:04:02;;;;;;;4.80;3.80;;;;;;;;;;5018418;28;20516;-92
2023/09/26 05:06:29;;;;;;;6.60;5.50;;;;;;;;;;5017783;28;20473;-91
2023/09/26 05:08:55;;;;;;;5.53;5.00;;;;;;;;;;5018390;28;20469;-91
2023/09/26 05:11:21;;;;;;;6.10;4.80;;;;;;;;;;5023174;28;20833;-91
2023/09/26 05:13:47;;;;;;;5.93;5.23;;;;;;;;;;5034600;28;20430;-92
2023/09/26 05:16:14;;;;;;;5.13;4.63;;;;;;;;;;5034186;28;20424;-92
2023/09/26 05:18:40;;;;;;;5.77;4.63;;;;;;;;;;5034040;28;20818;-93
2023/09/26 05:21:07;;;;;;;6.30;5.17;;;;;;;;;;5033954;28;20438;-91
2023/09/26 05:23:33;;;;;;;6.37;5.77;;;;;;;;;;5033915;28;20428;-91
2023/09/26 05:26:06;;;;;;;5.80;5.00;;;;;;;;;;5034407;28;20417;-92
2023/09/26 05:28:32;;;;;;;5.70;5.00;;;;;;;;;;5034117;28;20471;-91
2023/09/26 05:30:58;;;;;;;5.50;4.67;;;;;;;;;;5038046;28;20418;-91
2023/09/26 05:33:24;;;;;;;5.80;5.00;;;;;;;;;;5038244;28;20460;-91
2023/09/26 05:35:50;;;;;;;6.30;5.00;;;;;;;;;;5045359;28;20415;-91
2023/09/26 05:38:16;;;;;;;4.27;3.87;;;;;;;;;;5057618;28;20416;-91
2023/09/26 05:40:41;;;;;;;8.50;4.53;;;;;;;;;;5056992;28;20446;-92
2023/09/26 05:43:07;;;;;;;5.87;5.10;;;;;;;;;;5057035;28;20413;-91
2023/09/26 05:45:33;;;;;;;5.30;4.80;;;;;;;;;;5049710;28;20460;-91
2023/09/26 05:48:00;;;;;;;5.30;4.80;;;;;;;;;;5038271;28;20476;-92
2023/09/26 05:50:26;;;;;;;7.53;5.37;;;;;;;;;;5037381;28;20408;-92
2023/09/26 05:52:52;;;;;;;7.80;4.97;;;;;;;;;;5037860;28;20424;-93
2023/09/26 05:55:18;;;;;;;6.60;5.43;;;;;;;;;;5020238;28;20440;-92
2023/09/26 05:57:44;;;;;;;13.07;6.63;;;;;;;;;;5033561;28;20467;-92
2023/09/26 06:00:14;;;;;;;18.17;6.50;;;;;;;;;;5033751;28;20423;-92
2023/09/26 06:02:40;;;;;;;17.17;7.13;;;;;;;;;;5031679;28;20444;-92
2023/09/26 06:05:06;;;;;;;11.87;6.83;;;;;;;;;;5032399;28;20436;-92
2023/09/26 06:07:32;;;;;;;7.73;5.07;;;;;;;;;;5026868;28;20563;-92
2023/09/26 06:09:58;;;;;;;8.90;6.03;;;;;;;;;;5021944;28;20438;-92
2023/09/26 06:12:24;;;;;;;8.43;6.00;;;;;;;;;;5018366;28;20437;-92
2023/09/26 06:14:53;;;;;;;7.53;5.00;;;;;;;;;;5016698;28;20421;-92
2023/09/26 06:17:19;;;;;;;8.43;6.00;;;;;;;;;;5016480;28;20523;-92
2023/09/26 06:19:46;;;;;;;7.60;6.03;;;;;;;;;;5027378;28;20436;-92
2023/09/26 06:22:13;;;;;;;12.33;7.43;;;;;;;;;;5022226;28;20467;-92
2023/09/26 06:24:39;;;;;;;11.07;7.13;;;;;;;;;;5016388;28;20437;-92
2023/09/26 06:27:04;;;;;;;8.70;7.80;;;;;;;;;;5032906;28;20454;-92
2023/09/26 06:29:30;;;;;;;11.00;8.77;;;;;;;;;;5027029;28;20512;-92
2023/09/26 06:32:01;;;;;;;8.50;7.40;;;;;;;;;;5028281;28;20413;-93
2023/09/26 06:34:27;;;;;;;7.83;6.13;;;;;;;;;;5026487;28;20454;-93
2023/09/26 06:36:53;;;;;;;5.20;4.20;;;;;;;;;;5024637;28;20414;-92
2023/09/26 06:39:19;;;;;;;5.30;4.50;;;;;;;;;;5032137;28;20431;-92
2023/09/26 06:41:45;;;;;;;4.53;3.87;;;;;;;;;;5019932;28;20479;-92
2023/09/26 06:44:18;;;;;;;5.60;4.40;;;;;;;;;;5017176;28;20469;-94
2023/09/26 06:46:44;;;;;;;5.43;3.70;;;;;;;;;;5024378;28;20494;-91
2023/09/26 06:49:13;;;;;;;4.97;4.50;;;;;;;;;;5017625;28;20437;-92
2023/09/26 06:51:39;;;;;;;5.60;3.83;;;;;;;;;;5021932;28;20431;-94
2023/09/26 06:54:08;;;;;;;4.13;3.73;;;;;;;;;;5026496;28;20425;-93
2023/09/26 06:56:36;;;;;;;5.20;3.67;;;;;;;;;;5016097;28;20424;-94
2023/09/26 06:59:02;;;;;;;7.03;3.97;;;;;;;;;;5016642;28;20422;-93
2023/09/26 07:01:33;;;;;;;8.03;3.27;;;;;;;;;;5018375;28;20418;-93
2023/09/26 07:04:03;;;;;;;5.20;3.87;;;;;;;;;;5034110;28;20434;-94
2023/09/26 07:06:31;;;;;;;8.83;4.60;;;;;;;;;;5022436;28;20402;-92
2023/09/26 07:08:58;;;;;;;4.43;3.47;;;;;;;;;;5035365;28;20469;-92
2023/09/26 07:11:24;;;;;;;5.20;3.33;;;;;;;;;;5027464;28;20932;-91
2023/09/26 07:13:50;;;;;;;6.93;3.83;;;;;;;;;;5023530;28;20447;-91
2023/09/26 07:16:16;;;;;;;4.10;3.70;;;;;;;;;;5015872;28;20420;-93
2023/09/26 07:18:42;;;;;;;11.90;4.93;;;;;;;;;;5034129;28;20431;-91
2023/09/26 07:21:09;;;;;;;6.80;4.13;;;;;;;;;;5022212;28;20460;-93
2023/09/26 07:23:36;;;;;;;4.10;3.70;;;;;;;;;;5025538;28;20832;-92
2023/09/26 07:26:38;;;;;;;;;;;;;;;;;;;;;
2023/09/26 07:29:04;;;;;;;6.87;3.97;;;;;;;;;;5027086;28;20410;-93
2023/09/26 07:31:31;;;;;;;5.57;4.70;;;;;;;;;;5020503;28;20479;-93
2023/09/26 07:34:17;;;;;;;4.47;3.63;;;;;;;;;;5028512;28;20425;-92
2023/09/26 07:36:45;;;;;;;4.57;3.73;;;;;;;;;;5023063;28;20418;-94
2023/09/26 07:39:15;;;;;;;4.90;4.40;;;;;;;;;;5031651;28;20426;-93
2023/09/26 07:42:17;;;;;;;4.63;4.23;;;;;;;;;;5022808;28;20425;-93
2023/09/26 07:45:01;;;;;;;5.23;4.70;;;;;;;;;;4988243;28;20488;-93
2023/09/26 07:47:56;;;;;;;4.13;3.60;;;;;;;;;;5030773;28;20508;-94
2023/09/26 07:50:45;;;;;;;8.43;5.47;;;;;;;;;;5037626;28;20447;-96
2023/09/26 07:53:11;;;;;;;6.37;5.07;;;;;;;;;;5011584;28;20416;-94
2023/09/26 07:55:39;;;;;;;5.47;4.97;;;;;;;;;;5034807;28;20444;-94
2023/09/26 07:58:05;;;;;;;5.40;4.97;;;;;;;;;;5030609;28;20518;-93
2023/09/26 08:00:34;;;;;;;6.03;4.57;;;;;;;;;;5030571;28;20441;-94
2023/09/26 08:03:00;;;;;;;5.30;4.90;;;;;;;;;;5027683;28;20436;-92
2023/09/26 08:05:30;;;;;;;4.63;4.20;;;;;;;;;;5018994;28;20428;-94
2023/09/26 08:07:58;;;;;;;4.70;4.30;;;;;;;;;;5019146;28;20991;-94
2023/09/26 08:10:27;;;;;;;4.73;4.33;;;;;;;;;;5018290;28;20508;-94
2023/09/26 08:13:19;;;;;;;4.53;4.13;;;;;;;;;;5020047;28;20433;-95
2023/09/26 08:18:53;;;;;;;4.50;4.10;;;;;;;;;;5034550;28;20494;-93
2023/09/26 08:21:19;;;;;;;5.03;4.53;;;;;;;;;;5021904;28;20507;-91
2023/09/26 08:23:50;;;;;;;9.10;5.30;;;;;;;;;;5018832;28;20413;-92
2023/09/26 08:26:16;;;;;;;6.40;5.00;;;;;;;;;;5035078;28;20417;-88
2023/09/26 08:28:42;;;;;;;4.53;4.13;;;;;;;;;;5035800;28;20563;-89
2023/09/26 08:31:15;;;;;;;4.77;4.40;;;;;;;;;;5036065;28;20413;-94
2023/09/26 08:33:41;;;;;;;5.07;4.60;;;;;;;;;;5020412;28;20429;-93
2023/09/26 08:36:17;;;;;;;5.20;4.13;;;;;;;;;;5022951;28;20451;-92
2023/09/26 08:38:50;;;;;;;5.80;4.70;;;;;;;;;;5020282;28;20432;-94
2023/09/26 08:44:08;;;;;;;6.07;4.80;;;;;;;;;;5022327;28;20421;-93
2023/09/26 08:46:34;;;;;;;8.83;4.50;;;;;;;;;;5010075;28;20461;-92
2023/09/26 08:52:12;;;;;;;8.33;5.80;;;;;;;;;;4986631;28;20406;-90
2023/09/26 08:54:38;;;;;;;5.20;4.23;;;;;;;;;;4998692;28;20796;-91
2023/09/26 08:57:04;;;;;;;4.23;3.83;;;;;;;;;;4997731;28;20414;-89
2023/09/26 08:59:34;;;;;;;5.33;4.13;;;;;;;;;;5012746;28;20426;-90
2023/09/26 09:02:02;;;;;;;4.60;4.30;;;;;;;;;;4997448;28;20433;-90
2023/09/26 09:04:28;;;;;;;4.33;3.90;;;;;;;;;;4997949;28;20441;-90
2023/09/26 09:07:02;;;;;;;5.10;4.40;;;;;;;;;;4997732;28;20422;-90
2023/09/26 09:09:28;;;;;;;8.20;6.20;;;;;;;;;;4997996;28;20782;-93
2023/09/26 09:11:57;;;;;;;6.00;5.60;;;;;;;;;;4998375;28;20592;-94
2023/09/26 09:14:33;;;;;;;5.83;5.33;;;;;;;;;;4997569;28;20480;-92
2023/09/26 09:16:59;;;;;;;5.30;4.80;;;;;;;;;;4996708;28;20472;-93
2023/09/26 09:19:47;;;;;;;6.53;6.00;;;;;;;;;;4997362;28;20413;-92
2023/09/26 09:22:17;;;;;;;6.23;5.73;;;;;;;;;;4996121;28;20417;-94
2023/09/26 09:24:44;;;;;;;5.80;5.30;;;;;;;;;;5016278;28;20981;-95
2023/09/26 09:27:10;;;;;;;6.50;5.90;;;;;;;;;;4996030;28;20477;-93
2023/09/26 09:29:56;;;;;;;7.07;6.47;;;;;;;;;;5008661;28;20466;-93
2023/09/26 09:32:26;;;;;;;6.23;5.63;;;;;;;;;;5016238;28;20476;-94
2023/09/26 09:34:52;;;;;;;6.63;5.93;;;;;;;;;;4999723;28;20445;-93
2023/09/26 09:37:20;;;;;;;6.20;5.60;;;;;;;;;;4997902;28;20426;-92
2023/09/26 09:39:47;;;;;;;5.63;5.13;;;;;;;;;;4998465;28;20682;-93
2023/09/26 09:42:13;;;;;;;5.30;4.93;;;;;;;;;;4997133;28;20472;-92
2023/09/26 09:44:39;;;;;;;4.83;4.00;;;;;;;;;;5014316;28;20438;-95
2023/09/26 09:47:05;;;;;;;6.03;5.53;;;;;;;;;;5010568;28;20496;-92
2023/09/26 09:49:39;;;;;;;8.93;5.20;;;;;;;;;;5026976;28;20937;-93
2023/09/26 09:52:05;;;;;;;4.90;4.50;;;;;;;;;;5014883;28;20483;-91
2023/09/26 09:54:33;;;;;;;4.40;4.00;;;;;;;;;;5007915;28;20431;-92
2023/09/26 09:57:02;;;;;;;4.60;4.20;;;;;;;;;;5026975;28;20424;-91
2023/09/26 09:59:29;;;;;;;4.83;4.33;;;;;;;;;;5025420;28;20487;-90
2023/09/26 10:01:55;;;;;;;4.40;4.00;;;;;;;;;;5017432;28;20423;-92
2023/09/26 10:04:21;;;;;;;5.37;4.17;;;;;;;;;;5019966;28;20409;-94
2023/09/26 10:06:48;;;;;;;6.53;3.77;;;;;;;;;;5022209;28;20432;-92
2023/09/26 10:09:17;;;;;;;3.67;2.90;;;;;;;;;;5023002;28;20417;-92
2023/09/26 10:11:56;;;;;;;;;;;;;;;;;;;;;
2023/09/26 10:14:23;;;;;;;6.10;3.60;;;;;;;;;;5035671;28;20416;-93
2023/09/26 10:16:54;;;;;;;4.57;3.90;;;;;;;;;;5020694;28;20433;-94
2023/09/26 10:19:40;;;;;;;3.87;3.23;;;;;;;;;;5024226;28;20447;-93
2023/09/26 10:22:24;;;;;;;3.70;3.17;;;;;;;;;;5017732;28;20616;-94
2023/09/26 10:25:12;;;;;;;;;;;;;;;;;;;;;
2023/09/26 10:28:08;;;;;;;3.47;3.17;;;;;;;;;;5036406;28;20575;-92
2023/09/26 10:30:44;;;;;;;4.90;4.40;;;;;;;;;;5012327;28;20500;-93
2023/09/26 10:33:29;;;;;;;4.97;4.13;;;;;;;;;;5017144;28;20421;-94
2023/09/26 10:36:04;;;;;;;4.90;3.80;;;;;;;;;;5007025;28;20514;-95
2023/09/26 10:38:30;;;;;;;4.23;3.80;;;;;;;;;;5005550;28;20417;-93
2023/09/26 10:40:56;;;;;;;4.87;4.37;;;;;;;;;;5004340;28;20421;-92
2023/09/26 10:43:22;;;;;;;4.63;4.23;;;;;;;;;;5001275;28;20438;-92
2023/09/26 10:45:48;;;;;;;3.13;2.83;;;;;;;;;;4997109;28;20462;-88
2023/09/26 10:48:22;;;;;;;3.97;3.20;;;;;;;;;;5021476;28;20477;-93
2023/09/26 10:50:49;;;;;;;3.50;3.20;;;;;;;;;;5019767;28;20413;-94
2023/09/26 10:53:16;;;;;;;4.97;4.00;;;;;;;;;;5023961;28;20402;-94
2023/09/26 10:55:43;;;;;;;5.00;3.70;;;;;;;;;;5020391;28;20533;-92
2023/09/26 10:58:09;;;;;;;5.23;4.07;;;;;;;;;;5025571;28;20468;-90
2023/09/26 11:00:35;;;;;;;4.60;2.67;;;;;;;;;;5014007;28;20418;-91
2023/09/26 11:03:02;;;;;;;3.50;3.20;;;;;;;;;;5014718;28;20409;-90
2023/09/26 11:05:31;;;;;;;4.23;2.30;;;;;;;;;;5016760;28;20441;-91
2023/09/26 11:07:57;;;;;;;2.90;2.60;;;;;;;;;;5015136;28;20575;-91
2023/09/26 11:10:23;;;;;;;4.07;2.43;;;;;;;;;;5015303;28;20441;-89
2023/09/26 11:12:49;;;;;;;3.03;2.70;;;;;;;;;;5015470;28;20518;-93
2023/09/26 11:15:15;;;;;;;2.73;2.50;;;;;;;;;;5014973;28;20410;-87
2023/09/26 11:17:41;;;;;;;3.30;1.90;;;;;;;;;;5016249;28;20418;-93
2023/09/26 11:20:09;;;;;;;2.90;1.87;;;;;;;;;;5016452;28;20917;-86
2023/09/26 11:23:01;;;;;;;4.33;2.00;;;;;;;;;;5015854;28;20208;-87
2023/09/26 11:25:27;;;;;;;4.53;2.30;;;;;;;;;;5012583;28;20422;-89
2023/09/26 11:27:53;;;;;;;3.43;2.30;;;;;;;;;;5015239;28;20496;-89
2023/09/26 11:30:20;;;;;;;4.60;2.83;;;;;;;;;;5014547;28;20560;-90
2023/09/26 11:32:48;;;;;;;4.10;2.40;;;;;;;;;;5031157;28;20429;-89
2023/09/26 11:35:15;;;;;;;3.70;2.40;;;;;;;;;;5023644;28;20424;-88
2023/09/26 11:37:41;;;;;;;3.60;2.20;;;;;;;;;;5024151;28;20413;-89
2023/09/26 11:40:20;;;;;;;3.77;1.70;;;;;;;;;;5023699;28;20406;-88
2023/09/26 11:42:46;;;;;;;3.33;2.43;;;;;;;;;;5016094;28;20437;-88
2023/09/26 11:45:22;;;;;;;4.67;2.27;;;;;;;;;;5014995;28;20461;-85
2023/09/26 11:47:48;;;;;;;1.63;1.50;;;;;;;;;;5014393;28;20523;-89
2023/09/26 11:50:14;;;;;;;1.87;1.73;;;;;;;;;;5015570;28;20410;-86
2023/09/26 11:52:41;;;;;;;2.13;1.93;;;;;;;;;;5014387;28;20512;-88
2023/09/26 11:55:07;;;;;;;2.30;1.90;;;;;;;;;;5014420;28;20453;-88
2023/09/26 11:57:34;;;;;;;3.70;2.03;;;;;;;;;;5014360;28;20425;-88
2023/09/26 12:00:00;;;;;;;3.77;1.60;;;;;;;;;;5014029;28;20427;-88
2023/09/26 12:02:26;;;;;;;3.30;2.40;;;;;;;;;;5015333;28;20410;-87
2023/09/26 12:04:52;;;;;;;2.70;1.70;;;;;;;;;;5016052;28;20492;-87
2023/09/26 12:07:18;;;;;;;3.50;1.90;;;;;;;;;;5015459;28;20465;-88
2023/09/26 12:09:44;;;;;;;2.50;2.30;;;;;;;;;;5014000;28;20189;-89
2023/09/26 12:12:10;;;;;;;2.63;1.73;;;;;;;;;;5014308;28;20205;-90
2023/09/26 12:14:37;;;;;;;2.23;1.53;;;;;;;;;;5015172;28;20233;-92
2023/09/26 12:17:03;;;;;;;3.00;1.77;;;;;;;;;;5013732;28;20433;-91
2023/09/26 12:19:29;;;;;;;5.67;2.00;;;;;;;;;;5015061;28;20758;-93
2023/09/26 12:21:55;;;;;;;2.50;1.57;;;;;;;;;;5013919;28;20417;-89
2023/09/26 12:24:24;;;;;;;2.90;1.67;;;;;;;;;;5015094;28;20426;-92
2023/09/26 12:26:50;;;;;;;1.10;0.90;;;;;;;;;;5013776;28;20406;-91
2023/09/26 12:29:16;;;;;;;2.77;1.30;;;;;;;;;;5014983;28;20417;-90
2023/09/26 12:31:43;;;;;;;1.33;0.90;;;;;;;;;;5013589;28;20274;-90
2023/09/26 12:34:09;;;;;;;3.50;1.63;;;;;;;;;;5013567;28;20422;-92
2023/09/26 12:36:35;;;;;;;2.07;1.00;;;;;;;;;;5014679;28;20413;-91
2023/09/26 12:39:01;;;;;;;2.53;1.60;;;;;;;;;;5014730;28;20433;-93
2023/09/26 12:41:27;;;;;;;2.20;1.37;;;;;;;;;;5013380;28;20186;-90
2023/09/26 12:43:53;;;;;;;1.90;0.93;;;;;;;;;;5014183;28;20175;-92
2023/09/26 12:46:19;;;;;;;2.23;1.53;;;;;;;;;;5012791;28;20556;-91
2023/09/26 12:48:45;;;;;;;3.27;2.17;;;;;;;;;;5013355;28;21080;-90
2023/09/26 12:51:11;;;;;;;2.60;2.00;;;;;;;;;;5015165;28;20171;-92
2023/09/26 12:53:37;;;;;;;2.27;1.50;;;;;;;;;;5036714;28;20417;-92
2023/09/26 12:56:03;;;;;;;1.50;1.40;;;;;;;;;;5032154;28;20428;-90
2023/09/26 12:58:29;;;;;;;3.13;1.33;;;;;;;;;;5033852;28;20405;-91
2023/09/26 13:00:55;;;;;;;4.43;1.67;;;;;;;;;;5033636;28;20467;-90
2023/09/26 13:03:22;;;;;;;3.63;1.10;;;;;;;;;;5033616;28;20193;-91
2023/09/26 13:05:48;;;;;;;2.33;1.60;;;;;;;;;;5032625;28;20181;-90
2023/09/26 13:08:13;;;;;;;3.00;1.50;;;;;;;;;;5033722;28;20476;-90
2023/09/26 13:10:39;;;;;;;2.00;1.47;;;;;;;;;;5032359;28;20228;-88
2023/09/26 13:13:05;;;;;;;1.60;1.50;;;;;;;;;;5032342;28;20181;-88
2023/09/26 13:15:31;;;;;;;2.53;1.63;;;;;;;;;;5033185;28;20170;-87
2023/09/26 13:17:58;;;;;;;3.60;3.30;;;;;;;;;;5032256;28;20179;-88
2023/09/26 13:20:23;;;;;;;5.47;3.47;;;;;;;;;;5032336;28;20209;-87
2023/09/26 13:22:49;;;;;;;3.20;2.20;;;;;;;;;;5033287;28;20449;-88
2023/09/26 13:25:15;;;;;;;2.30;1.80;;;;;;;;;;5032249;28;20181;-90
2023/09/26 13:27:42;;;;;;;2.00;1.80;;;;;;;;;;5032044;28;20837;-90
2023/09/26 13:30:08;;;;;;;2.07;1.47;;;;;;;;;;5031801;28;20433;-89
2023/09/26 13:32:34;;;;;;;2.40;1.40;;;;;;;;;;5032231;28;20410;-91
2023/09/26 13:35:03;;;;;;;2.20;1.83;;;;;;;;;;5032245;28;21050;-90
2023/09/26 13:37:29;;;;;;;2.07;1.40;;;;;;;;;;5033384;28;20473;-90
2023/09/26 13:39:55;;;;;;;3.23;1.97;;;;;;;;;;5033357;28;20409;-89
2023/09/26 13:42:21;;;;;;;3.83;1.80;;;;;;;;;;5032632;28;20174;-89
2023/09/26 13:44:47;;;;;;;3.10;1.10;;;;;;;;;;5031611;28;20173;-90
2023/09/26 13:47:13;;;;;;;3.10;1.63;;;;;;;;;;5031788;28;20686;-89
2023/09/26 13:49:39;;;;;;;1.90;1.77;;;;;;;;;;5033042;28;20422;-87
2023/09/26 13:52:05;;;;;;;1.40;1.13;;;;;;;;;;5031793;28;20420;-90
2023/09/26 13:54:32;;;;;;;2.73;1.43;;;;;;;;;;5031788;28;20424;-89
2023/09/26 13:56:58;;;;;;;2.30;1.80;;;;;;;;;;5033125;28;20409;-90
2023/09/26 13:59:24;;;;;;;1.63;1.50;;;;;;;;;;5033119;28;20405;-87
2023/09/26 14:01:50;;;;;;;1.70;1.60;;;;;;;;;;5032819;28;20564;-89
2023/09/26 14:04:16;;;;;;;5.43;1.40;;;;;;;;;;5031847;28;20171;-88
2023/09/26 14:06:42;;;;;;;2.90;1.67;;;;;;;;;;5031651;28;20907;-89
2023/09/26 14:09:08;;;;;;;4.60;1.57;;;;;;;;;;5031207;28;20678;-88
2023/09/26 14:11:34;;;;;;;2.13;1.90;;;;;;;;;;5033072;28;20202;-88
2023/09/26 14:14:00;;;;;;;5.37;2.10;;;;;;;;;;5032474;28;20458;-89
2023/09/26 14:16:26;;;;;;;3.53;2.00;;;;;;;;;;5037282;28;20209;-89
2023/09/26 14:18:52;;;;;;;2.77;1.53;;;;;;;;;;5033438;28;20201;-88
2023/09/26 14:21:18;;;;;;;3.70;2.13;;;;;;;;;;5033164;28;20563;-89
2023/09/26 14:23:44;;;;;;;2.17;1.60;;;;;;;;;;5031468;28;20266;-89
2023/09/26 14:26:11;;;;;;;1.70;1.60;;;;;;;;;;5031430;28;20174;-88
2023/09/26 14:28:39;;;;;;;2.80;1.47;;;;;;;;;;5031831;28;20467;-89
2023/09/26 14:31:07;;;;;;;3.37;2.20;;;;;;;;;;5031352;28;20482;-88
2023/09/26 14:33:33;;;;;;;3.90;1.97;;;;;;;;;;5031902;28;20431;-89
2023/09/26 14:35:59;;;;;;;2.20;1.60;;;;;;;;;;5023268;28;20433;-88
2023/09/26 14:38:25;;;;;;;3.43;1.90;;;;;;;;;;4995655;28;20175;-88
2023/09/26 14:40:53;;;;;;;1.73;1.60;;;;;;;;;;5013118;28;20180;-86
2023/09/26 14:43:19;;;;;;;3.20;1.80;;;;;;;;;;5013490;28;20783;-86
2023/09/26 14:45:45;;;;;;;3.97;1.97;;;;;;;;;;5038371;28;20414;-90
2023/09/26 14:48:11;;;;;;;3.30;1.40;;;;;;;;;;5039553;28;20964;-87
2023/09/26 14:50:37;;;;;;;2.27;2.00;;;;;;;;;;5042932;28;20185;-92
2023/09/26 14:53:03;;;;;;;3.93;2.20;;;;;;;;;;5038783;28;20177;-88
2023/09/26 14:55:29;;;;;;;2.77;1.97;;;;;;;;;;5039370;28;20195;-84
2023/09/26 14:57:56;;;;;;;3.77;1.67;;;;;;;;;;5047520;28;20916;-94